Capitol Logistics 1845

Operating for CJT



KEWR
Newark Liberty International Airport
Newark, New Jersey
TXKF
L.F. Wade International International Airport
Bermuda,

Route Details

Aircraft Information
Group: North America Fleet
Types: B738,B752,B762,B763
Route Data
Demand: H
Distance: 678nm
Duration: 1h 35m
Recm'd Route: ELVAE COL DIXIE Y482 SQUAD DARUX L459 DASER MOMOM1
Origin Wx: KEWR 272151Z 16005KT 9SM -RA FEW012 SCT040 BKN100 OVC130 22/19 A2981 RMK AO2 PK WND 21027/2105 WSHFT 2102 LTG DSNT NE TSE50 PRESFR SLP094 P0041 T02220194
Dest. Wx: TXKF 272155Z 15008KT 9999 FEW026 SCT043 24/18 Q1022
Notes:

Financial History
Total Freight: 296,483lbs
Average Load: 74,121lbs/flt
Fuel Used: 80,534lbs
Avg. Fuel Used: 20,134lbs/flt
Fuel Expense: $30,367
Avg. Fuel Expense: $7,592
Avg. Fuel Cost: $0.40/lbs
Total Gross Income: $841,265
Pilot Pay: $856
Total Expenses: $101,048
Total Revenue: $708,143
Average Revenue: $210,316.15